createdAt,value
2022-07-26T00:01:19.984Z,21.13
2022-07-26T00:03:49.452Z,21.13
2022-07-26T00:06:18.997Z,21.09
2022-07-26T00:08:48.957Z,21.05
2022-07-26T00:11:17.294Z,21.09
2022-07-26T00:13:45.575Z,21.03
2022-07-26T00:16:13.792Z,20.93
2022-07-26T00:18:42.047Z,20.96
2022-07-26T00:21:09.973Z,20.98
2022-07-26T00:23:39.845Z,20.95
2022-07-26T00:26:09.458Z,20.87
2022-07-26T00:28:37.467Z,20.78
2022-07-26T00:31:05.994Z,20.75
2022-07-26T00:33:34.138Z,20.77
2022-07-26T00:36:02.255Z,20.75
2022-07-26T00:38:30.247Z,20.71
2022-07-26T00:40:58.663Z,20.73
2022-07-26T00:43:28.417Z,20.68
2022-07-26T00:45:56.676Z,20.71
2022-07-26T00:48:24.944Z,20.69
2022-07-26T00:50:55.330Z,20.69
2022-07-26T00:53:24.430Z,20.59
2022-07-26T00:55:52.695Z,20.59
2022-07-26T00:58:20.629Z,20.55
2022-07-26T01:00:50.155Z,20.59
2022-07-26T01:03:18.192Z,20.62
2022-07-26T01:05:47.046Z,20.68
2022-07-26T01:08:15.136Z,20.67
2022-07-26T01:10:43.857Z,20.65
2022-07-26T01:13:12.212Z,20.63
2022-07-26T01:15:40.487Z,20.60
2022-07-26T01:18:09.961Z,20.59
2022-07-26T01:20:38.436Z,20.55
2022-07-26T01:23:08.909Z,20.54
2022-07-26T01:25:43.159Z,20.55
2022-07-26T01:28:12.093Z,20.43
2022-07-26T01:30:48.581Z,20.41
2022-07-26T01:33:17.093Z,20.35
2022-07-26T01:35:45.405Z,20.32
2022-07-26T01:38:14.824Z,20.22
2022-07-26T01:40:42.827Z,20.25
2022-07-26T01:43:10.738Z,20.17
2022-07-26T01:45:38.876Z,20.02
2022-07-26T01:48:08.634Z,20.06
2022-07-26T01:50:37.414Z,20.02
2022-07-26T01:53:08.197Z,20.06
2022-07-26T01:55:38.164Z,20.07
2022-07-26T01:58:06.926Z,20.07
2022-07-26T02:00:35.242Z,20.09
2022-07-26T02:03:03.918Z,20.10
2022-07-26T02:05:32.169Z,20.08
2022-07-26T02:08:00.209Z,20.08
2022-07-26T02:10:50.456Z,20.02
2022-07-26T02:13:19.836Z,20.05
2022-07-26T02:15:47.904Z,20.08
2022-07-26T02:18:16.111Z,20.17
2022-07-26T02:20:44.394Z,20.17
2022-07-26T02:23:12.934Z,20.17
2022-07-26T02:25:41.057Z,20.20
2022-07-26T02:28:09.051Z,20.20
2022-07-26T02:30:38.372Z,20.23
2022-07-26T02:33:07.473Z,20.19
2022-07-26T02:35:35.537Z,20.19
2022-07-26T02:38:04.769Z,20.17
2022-07-26T02:40:33.237Z,20.16
2022-07-26T02:43:01.429Z,20.13
2022-07-26T02:45:31.692Z,20.14
2022-07-26T02:48:01.139Z,20.09
2022-07-26T02:50:30.226Z,20.08
2022-07-26T02:52:58.273Z,19.91
2022-07-26T02:55:28.339Z,19.90
2022-07-26T02:57:56.282Z,19.93
2022-07-26T03:00:26.666Z,20.02
2022-07-26T03:02:55.673Z,19.90
2022-07-26T03:05:25.441Z,20.02
2022-07-26T03:07:53.764Z,19.99
2022-07-26T03:10:21.935Z,20.01
2022-07-26T03:12:49.874Z,19.96
2022-07-26T03:15:18.314Z,20.01
2022-07-26T03:17:46.327Z,20.07
2022-07-26T03:20:14.694Z,20.20
2022-07-26T03:22:44.226Z,20.17
2022-07-26T03:25:12.280Z,20.22
2022-07-26T03:27:40.234Z,20.23
2022-07-26T03:30:09.489Z,20.15
2022-07-26T03:32:37.552Z,20.25
2022-07-26T03:35:06.630Z,20.21
2022-07-26T03:37:44.171Z,20.20
2022-07-26T03:40:16.533Z,20.17
2022-07-26T03:42:45.330Z,20.12
2022-07-26T03:45:14.431Z,20.12
2022-07-26T03:47:43.414Z,20.16
2022-07-26T03:50:13.732Z,20.23
2022-07-26T03:52:42.186Z,20.29
2022-07-26T03:55:28.938Z,20.34
2022-07-26T03:57:58.437Z,20.31
2022-07-26T04:00:26.563Z,20.30
2022-07-26T04:02:54.700Z,20.27
2022-07-26T04:05:23.749Z,20.26
2022-07-26T04:07:54.737Z,20.31
2022-07-26T04:10:24.358Z,20.41
2022-07-26T04:12:52.245Z,20.49
2022-07-26T04:15:21.788Z,20.50
2022-07-26T04:17:49.739Z,20.50
2022-07-26T04:20:18.167Z,20.45
2022-07-26T04:22:46.385Z,20.52
2022-07-26T04:25:14.481Z,20.53
2022-07-26T04:27:42.387Z,20.43
2022-07-26T04:30:15.189Z,20.38
2022-07-26T04:32:45.911Z,20.35
2022-07-26T04:35:15.208Z,20.43
2022-07-26T04:37:43.685Z,20.40
2022-07-26T04:40:13.356Z,20.35
2022-07-26T04:42:42.233Z,20.42
2022-07-26T04:45:12.739Z,20.50
2022-07-26T04:47:44.459Z,20.52
2022-07-26T04:50:13.672Z,20.52
2022-07-26T04:52:43.425Z,20.54
2022-07-26T04:55:12.161Z,20.57
2022-07-26T04:57:40.384Z,20.58
2022-07-26T05:00:27.235Z,20.62
2022-07-26T05:02:58.902Z,20.49
2022-07-26T05:05:29.621Z,20.43
2022-07-26T05:07:59.675Z,20.37
2022-07-26T05:10:31.436Z,20.29
2022-07-26T05:12:59.566Z,20.19
2022-07-26T05:15:35.349Z,20.20
2022-07-26T05:18:08.828Z,20.09
2022-07-26T05:20:39.254Z,20.08
2022-07-26T05:23:07.325Z,20.01
2022-07-26T05:25:35.657Z,19.88
2022-07-26T05:28:03.570Z,19.70
2022-07-26T05:30:31.764Z,19.68
2022-07-26T05:32:59.874Z,19.71
2022-07-26T05:35:29.227Z,19.74
2022-07-26T05:37:57.230Z,19.72
2022-07-26T05:40:25.335Z,19.73
2022-07-26T05:42:53.299Z,19.75
2022-07-26T05:45:21.483Z,19.65
2022-07-26T05:47:51.409Z,19.69
2022-07-26T05:50:19.911Z,19.73
2022-07-26T05:52:49.282Z,19.84
2022-07-26T05:55:17.424Z,19.81
2022-07-26T05:58:00.498Z,19.86
2022-07-26T06:00:28.713Z,19.82
2022-07-26T06:02:56.733Z,19.85
2022-07-26T06:05:24.728Z,19.86
2022-07-26T06:07:54.261Z,19.87
2022-07-26T06:10:22.194Z,19.81
2022-07-26T06:12:50.137Z,19.90
2022-07-26T06:15:18.173Z,20.05
2022-07-26T06:17:46.113Z,20.17
2022-07-26T06:20:14.067Z,20.29
2022-07-26T06:22:42.288Z,20.68
2022-07-26T06:25:11.693Z,20.99
2022-07-26T06:27:39.683Z,20.93
2022-07-26T06:30:10.106Z,21.00
2022-07-26T06:32:38.047Z,21.09
2022-07-26T06:35:06.745Z,21.19
2022-07-26T06:37:37.547Z,21.26
2022-07-26T06:40:06.425Z,21.55
2022-07-26T06:42:35.768Z,22.47
2022-07-26T06:45:05.314Z,22.75
2022-07-26T06:47:33.916Z,22.56
2022-07-26T06:50:01.934Z,23.15
2022-07-26T06:52:30.063Z,23.21
2022-07-26T06:54:57.958Z,22.71
2022-07-26T06:57:25.893Z,22.33
2022-07-26T06:59:55.390Z,22.01
2022-07-26T07:02:23.296Z,21.45
2022-07-26T07:04:51.245Z,20.98
2022-07-26T07:07:19.393Z,20.71
2022-07-26T07:09:47.443Z,20.70
2022-07-26T07:12:15.791Z,20.57
2022-07-26T07:14:43.979Z,20.75
2022-07-26T07:17:18.467Z,21.13
2022-07-26T07:19:48.241Z,21.77
2022-07-26T07:22:16.327Z,21.67
2022-07-26T07:24:44.697Z,22.00
2022-07-26T07:27:14.841Z,22.89
2022-07-26T07:29:43.761Z,24.49
2022-07-26T07:32:18.089Z,25.83
2022-07-26T07:34:47.646Z,27.57
2022-07-26T07:37:15.859Z,27.93
2022-07-26T07:39:43.972Z,27.18
2022-07-26T07:42:17.026Z,25.97
2022-07-26T07:44:45.061Z,24.95
2022-07-26T07:47:14.772Z,23.95
2022-07-26T07:49:42.954Z,23.11
2022-07-26T07:52:10.821Z,22.27
2022-07-26T07:54:38.763Z,21.78
2022-07-26T07:57:06.784Z,21.55
2022-07-26T07:59:37.091Z,21.36
2022-07-26T08:02:07.960Z,21.51
2022-07-26T08:04:37.391Z,21.64
2022-07-26T08:07:05.510Z,21.93
2022-07-26T08:09:34.152Z,22.50
2022-07-26T08:12:02.348Z,23.97
2022-07-26T08:14:30.399Z,26.01
2022-07-26T08:16:58.737Z,27.59
2022-07-26T08:19:32.175Z,28.39
2022-07-26T08:22:12.265Z,29.52
2022-07-26T08:24:40.611Z,30.18
2022-07-26T08:27:08.666Z,30.67
2022-07-26T08:29:36.735Z,30.66
2022-07-26T08:32:05.031Z,29.94
2022-07-26T08:34:33.164Z,29.22
2022-07-26T08:37:16.483Z,28.95
2022-07-26T08:39:47.797Z,27.75
2022-07-26T08:42:17.096Z,26.40
2022-07-26T08:44:51.843Z,25.24
2022-07-26T08:47:35.277Z,24.35
2022-07-26T08:50:07.008Z,23.77
2022-07-26T08:52:35.297Z,25.73
2022-07-26T08:55:05.016Z,27.32
2022-07-26T08:57:32.976Z,29.31
2022-07-26T09:00:20.185Z,29.42
2022-07-26T09:02:48.917Z,27.62
2022-07-26T09:05:19.247Z,25.82
2022-07-26T09:07:47.432Z,24.86
2022-07-26T09:10:17.365Z,24.50
2022-07-26T09:12:46.036Z,24.06
2022-07-26T09:15:21.999Z,23.46
2022-07-26T09:17:52.327Z,22.73
2022-07-26T09:20:25.744Z,22.63
2022-07-26T09:23:02.554Z,22.42
2022-07-26T09:25:33.618Z,22.46
2022-07-26T09:28:01.958Z,22.49
2022-07-26T09:30:32.021Z,22.78
2022-07-26T09:33:03.586Z,24.46
2022-07-26T09:35:51.379Z,25.21
2022-07-26T09:38:20.640Z,26.10
2022-07-26T09:40:51.427Z,27.47
2022-07-26T09:43:24.584Z,28.27
2022-07-26T09:46:04.876Z,28.31
2022-07-26T09:48:59.575Z,27.25
2022-07-26T09:51:37.333Z,26.46
2022-07-26T09:54:05.725Z,27.03
2022-07-26T09:56:46.479Z,26.95
2022-07-26T09:59:16.542Z,26.53
2022-07-26T10:01:44.935Z,26.25
2022-07-26T10:04:14.079Z,25.77
2022-07-26T10:06:43.276Z,25.54
2022-07-26T10:09:11.923Z,24.83
2022-07-26T10:11:47.335Z,24.74
2022-07-26T10:14:38.282Z,24.75
2022-07-26T10:17:40.022Z,25.44
2022-07-26T10:20:17.259Z,25.75
2022-07-26T10:22:50.686Z,25.78
2022-07-26T10:25:47.678Z,25.90
2022-07-26T10:28:27.825Z,25.67
2022-07-26T10:31:24.517Z,25.86
2022-07-26T10:33:54.661Z,25.83
2022-07-26T10:36:24.207Z,25.64
2022-07-26T10:39:10.408Z,25.77
2022-07-26T10:41:44.033Z,25.79
2022-07-26T10:44:19.241Z,25.50
2022-07-26T10:46:57.975Z,25.67
2022-07-26T10:49:31.526Z,25.97
2022-07-26T10:52:14.957Z,26.58
2022-07-26T10:55:17.294Z,26.40
2022-07-26T10:57:47.603Z,25.77
2022-07-26T11:00:19.939Z,25.41
2022-07-26T11:03:05.693Z,25.04
2022-07-26T11:05:35.126Z,24.52
2022-07-26T11:08:12.144Z,24.29
2022-07-26T11:10:41.864Z,24.18
2022-07-26T11:13:15.768Z,24.29
2022-07-26T11:15:47.354Z,24.25
2022-07-26T11:18:22.300Z,23.91
2022-07-26T11:20:55.542Z,23.84
2022-07-26T11:23:32.506Z,23.29
2022-07-26T11:26:11.733Z,23.24
2022-07-26T11:28:50.868Z,23.57
2022-07-26T11:31:22.562Z,23.63
2022-07-26T11:33:57.630Z,23.74
2022-07-26T11:36:37.108Z,23.64
2022-07-26T11:39:07.616Z,23.83
2022-07-26T11:41:36.184Z,23.56
2022-07-26T11:44:05.907Z,23.80
2022-07-26T11:46:37.654Z,23.81
2022-07-26T11:49:13.247Z,24.04
2022-07-26T11:51:41.473Z,23.90
2022-07-26T11:54:09.572Z,23.84
2022-07-26T11:56:37.910Z,23.56
2022-07-26T11:59:06.277Z,23.47
2022-07-26T12:01:35.641Z,23.39
2022-07-26T12:04:03.794Z,23.00
2022-07-26T12:06:39.815Z,22.74
2022-07-26T12:09:07.992Z,22.69
2022-07-26T12:11:41.707Z,22.66
2022-07-26T12:14:12.538Z,22.55
2022-07-26T12:16:47.224Z,22.49
2022-07-26T12:19:29.875Z,22.41
2022-07-26T12:22:00.544Z,22.43
2022-07-26T12:24:47.289Z,22.35
2022-07-26T12:27:19.701Z,22.42
2022-07-26T12:29:49.354Z,22.59
2022-07-26T12:32:20.684Z,22.43
2022-07-26T12:35:00.556Z,22.14
2022-07-26T12:37:39.513Z,22.07
2022-07-26T12:40:11.144Z,22.14
2022-07-26T12:42:40.943Z,22.00
2022-07-26T12:45:10.755Z,21.99
2022-07-26T12:47:42.021Z,22.29
2022-07-26T12:50:12.069Z,22.56
2022-07-26T12:52:40.565Z,22.63
2022-07-26T12:55:11.571Z,22.30
2022-07-26T12:57:45.918Z,22.41
2022-07-26T13:00:17.827Z,22.19
2022-07-26T13:02:47.656Z,22.11
2022-07-26T13:05:16.980Z,22.30
2022-07-26T13:07:45.099Z,22.09
2022-07-26T13:10:32.411Z,22.12
2022-07-26T13:13:01.666Z,22.06
2022-07-26T13:15:35.048Z,22.19
2022-07-26T13:18:08.354Z,22.22
2022-07-26T13:20:39.273Z,22.40
2022-07-26T13:23:11.624Z,22.49
2022-07-26T13:25:42.194Z,22.69
2022-07-26T13:28:10.994Z,22.85
2022-07-26T13:30:43.285Z,22.66
2022-07-26T13:33:13.173Z,22.72
2022-07-26T13:35:42.725Z,22.77
2022-07-26T13:38:11.155Z,22.54
2022-07-26T13:40:39.368Z,22.53
2022-07-26T13:43:07.366Z,22.66
2022-07-26T13:45:35.589Z,22.53
2022-07-26T13:48:03.799Z,22.36
2022-07-26T13:50:33.140Z,22.41
2022-07-26T13:53:01.220Z,22.53
2022-07-26T13:55:29.293Z,22.47
2022-07-26T13:57:58.328Z,22.35
2022-07-26T14:00:27.487Z,22.42
2022-07-26T14:02:55.820Z,22.66
2022-07-26T14:05:24.197Z,22.90
2022-07-26T14:07:54.249Z,22.67
2022-07-26T14:10:23.074Z,22.37
2022-07-26T14:12:51.334Z,22.11
2022-07-26T14:15:22.565Z,21.87
2022-07-26T14:17:51.555Z,21.88
2022-07-26T14:20:20.107Z,21.80
2022-07-26T14:22:49.212Z,22.11
2022-07-26T14:25:18.517Z,22.28
2022-07-26T14:27:46.806Z,22.19
2022-07-26T14:30:15.428Z,22.45
2022-07-26T14:32:43.464Z,22.76
2022-07-26T14:35:12.113Z,23.00
2022-07-26T14:37:42.546Z,22.78
2022-07-26T14:40:14.445Z,22.81
2022-07-26T14:42:43.717Z,22.99
2022-07-26T14:45:12.062Z,23.03
2022-07-26T14:47:40.469Z,23.01
2022-07-26T14:50:10.266Z,22.70
2022-07-26T14:52:39.258Z,22.60
2022-07-26T14:55:08.288Z,22.53
2022-07-26T14:57:39.680Z,22.43
2022-07-26T15:00:12.485Z,22.54
2022-07-26T15:02:41.689Z,22.49
2022-07-26T15:05:10.717Z,22.46
2022-07-26T15:07:39.199Z,22.58
2022-07-26T15:10:08.648Z,22.61
2022-07-26T15:12:36.673Z,22.51
2022-07-26T15:15:05.225Z,22.28
2022-07-26T15:17:34.509Z,22.30
2022-07-26T15:20:02.655Z,22.35
2022-07-26T15:22:30.671Z,22.44
2022-07-26T15:24:58.617Z,22.68
2022-07-26T15:27:26.507Z,22.47
2022-07-26T15:29:58.264Z,22.35
2022-07-26T15:32:30.565Z,22.36
2022-07-26T15:35:00.081Z,22.42
2022-07-26T15:37:28.091Z,22.43
2022-07-26T15:39:56.119Z,22.33
2022-07-26T15:42:24.051Z,22.03
2022-07-26T15:44:52.822Z,21.80
2022-07-26T15:47:51.246Z,21.75
2022-07-26T15:50:14.138Z,21.71
2022-07-26T15:52:45.046Z,21.58
2022-07-26T15:55:13.881Z,21.47
2022-07-26T15:57:42.153Z,21.61
2022-07-26T16:00:12.686Z,21.51
2022-07-26T16:02:42.058Z,21.60
2022-07-26T16:05:12.591Z,21.52
2022-07-26T16:07:41.561Z,21.30
2022-07-26T16:10:12.507Z,21.53
2022-07-26T16:12:40.823Z,21.66
2022-07-26T16:15:11.194Z,21.60
2022-07-26T16:17:40.205Z,21.48
2022-07-26T16:20:09.249Z,21.42
2022-07-26T16:22:41.210Z,21.59
2022-07-26T16:25:12.759Z,21.62
2022-07-26T16:27:41.461Z,21.37
2022-07-26T16:30:10.427Z,21.47
2022-07-26T16:32:38.363Z,21.66
2022-07-26T16:35:07.129Z,21.66
2022-07-26T16:37:35.013Z,21.71
2022-07-26T16:40:05.206Z,21.51
2022-07-26T16:42:33.307Z,21.45
2022-07-26T16:45:01.347Z,21.32
2022-07-26T16:47:29.357Z,21.23
2022-07-26T16:49:57.480Z,21.22
2022-07-26T16:52:25.430Z,21.04
2022-07-26T16:54:53.368Z,21.06
2022-07-26T16:57:22.905Z,21.18
2022-07-26T16:59:51.060Z,21.03
2022-07-26T17:02:19.119Z,20.97
2022-07-26T17:04:47.109Z,20.83
2022-07-26T17:07:25.191Z,20.86
2022-07-26T17:09:54.278Z,21.04
2022-07-26T17:12:24.484Z,21.08
2022-07-26T17:14:53.026Z,20.97
2022-07-26T17:17:21.042Z,20.81
2022-07-26T17:19:49.553Z,20.58
2022-07-26T17:22:17.908Z,20.34
2022-07-26T17:24:46.084Z,20.29
2022-07-26T17:27:14.108Z,20.32
2022-07-26T17:29:43.821Z,20.22
2022-07-26T17:32:11.917Z,20.28
2022-07-26T17:34:40.018Z,20.24
2022-07-26T17:37:09.943Z,20.25
2022-07-26T17:39:52.792Z,20.28
2022-07-26T17:42:21.939Z,20.24
2022-07-26T17:44:51.674Z,20.20
2022-07-26T17:47:28.975Z,20.33
2022-07-26T17:50:14.090Z,20.37
2022-07-26T17:52:47.071Z,20.28
2022-07-26T17:55:15.120Z,20.15
2022-07-26T17:57:43.227Z,19.89
2022-07-26T18:00:14.041Z,19.85
2022-07-26T18:02:42.125Z,19.83
2022-07-26T18:05:11.107Z,19.79
2022-07-26T18:07:40.530Z,19.71
2022-07-26T18:10:10.129Z,19.81
2022-07-26T18:12:38.105Z,19.85
2022-07-26T18:15:07.423Z,19.87
2022-07-26T18:17:36.713Z,19.79
2022-07-26T18:20:05.702Z,19.86
2022-07-26T18:22:33.780Z,19.66
2022-07-26T18:25:01.978Z,19.57
2022-07-26T18:27:30.240Z,19.32
2022-07-26T18:29:58.532Z,19.44
2022-07-26T18:32:26.973Z,19.35
2022-07-26T18:34:56.281Z,19.34
2022-07-26T18:37:24.260Z,19.41
2022-07-26T18:39:57.375Z,19.57
2022-07-26T18:42:25.917Z,19.53
2022-07-26T18:44:54.164Z,19.39
2022-07-26T18:47:22.407Z,19.29
2022-07-26T18:49:50.321Z,19.29
2022-07-26T18:52:28.331Z,19.12
2022-07-26T18:54:58.568Z,19.06
2022-07-26T18:57:26.549Z,19.07
2022-07-26T18:59:54.521Z,18.94
2022-07-26T19:02:22.481Z,18.84
2022-07-26T19:04:50.457Z,18.82
2022-07-26T19:07:18.336Z,18.82
2022-07-26T19:09:47.692Z,18.94
2022-07-26T19:12:15.924Z,18.81
2022-07-26T19:14:43.836Z,18.90
2022-07-26T19:17:11.830Z,18.87
2022-07-26T19:19:40.250Z,18.83
2022-07-26T19:22:08.206Z,18.75
2022-07-26T19:24:37.047Z,18.73
2022-07-26T19:27:06.453Z,18.70
2022-07-26T19:29:34.414Z,18.56
2022-07-26T19:32:02.491Z,18.57
2022-07-26T19:34:30.478Z,18.53
2022-07-26T19:36:58.560Z,18.51
2022-07-26T19:39:26.526Z,18.49
2022-07-26T19:41:54.801Z,18.48
2022-07-26T19:44:24.096Z,18.47
2022-07-26T19:46:57.298Z,18.47
2022-07-26T19:49:26.193Z,18.53
2022-07-26T19:51:54.234Z,18.59
2022-07-26T19:54:22.998Z,18.65
2022-07-26T19:56:50.941Z,18.63
2022-07-26T19:59:23.395Z,18.59
2022-07-26T20:01:56.569Z,18.58
2022-07-26T20:04:26.468Z,18.54
2022-07-26T20:06:55.197Z,18.52
2022-07-26T20:09:23.253Z,18.51
2022-07-26T20:11:51.929Z,18.45
2022-07-26T20:14:20.395Z,18.50
2022-07-26T20:16:52.793Z,18.57
2022-07-26T20:19:28.084Z,18.72
2022-07-26T20:21:56.356Z,18.73
2022-07-26T20:24:24.281Z,18.67
2022-07-26T20:26:52.245Z,18.65
2022-07-26T20:29:20.318Z,18.56
2022-07-26T20:31:48.274Z,18.45
2022-07-26T20:34:16.360Z,18.42
2022-07-26T20:36:45.662Z,18.43
2022-07-26T20:39:15.248Z,18.39
2022-07-26T20:41:43.650Z,18.40
2022-07-26T20:44:12.397Z,18.43
2022-07-26T20:46:41.851Z,18.43
2022-07-26T20:49:11.004Z,18.40
2022-07-26T20:51:39.292Z,18.40
2022-07-26T20:54:10.382Z,18.20
2022-07-26T20:56:38.625Z,18.18
2022-07-26T20:59:07.090Z,18.17
2022-07-26T21:01:35.192Z,18.14
2022-07-26T21:04:03.265Z,18.10
2022-07-26T21:06:33.199Z,18.11
2022-07-26T21:09:09.666Z,18.02
2022-07-26T21:11:39.842Z,17.95
2022-07-26T21:14:08.153Z,17.88
2022-07-26T21:16:36.528Z,17.82
2022-07-26T21:19:05.427Z,17.75
2022-07-26T21:21:34.896Z,17.85
2022-07-26T21:24:02.808Z,17.91
2022-07-26T21:26:30.853Z,17.95
2022-07-26T21:29:00.329Z,17.97
2022-07-26T21:31:28.412Z,17.97
2022-07-26T21:33:56.605Z,17.96
2022-07-26T21:36:24.672Z,17.93
2022-07-26T21:38:52.600Z,17.92
2022-07-26T21:41:20.944Z,17.91
2022-07-26T21:43:49.065Z,17.92
2022-07-26T21:46:18.749Z,17.88
2022-07-26T21:48:46.821Z,17.97
2022-07-26T21:51:15.017Z,18.01
2022-07-26T21:53:43.023Z,18.01
2022-07-26T21:56:11.551Z,18.07
2022-07-26T21:58:40.107Z,18.13
2022-07-26T22:01:11.381Z,18.08
2022-07-26T22:03:42.248Z,18.15
2022-07-26T22:06:11.411Z,18.14
2022-07-26T22:08:39.950Z,18.12
2022-07-26T22:11:12.715Z,18.06
2022-07-26T22:13:40.975Z,18.02
2022-07-26T22:16:09.247Z,18.01
2022-07-26T22:18:41.602Z,18.03
2022-07-26T22:21:10.379Z,18.01
2022-07-26T22:23:38.357Z,18.02
2022-07-26T22:26:09.515Z,18.00
2022-07-26T22:28:38.389Z,17.98
2022-07-26T22:31:06.663Z,17.99
2022-07-26T22:33:34.750Z,17.97
2022-07-26T22:36:04.674Z,17.92
2022-07-26T22:38:32.851Z,17.89
2022-07-26T22:41:00.998Z,17.91
2022-07-26T22:43:28.914Z,17.87
2022-07-26T22:45:57.211Z,17.83
2022-07-26T22:48:25.747Z,17.80
2022-07-26T22:50:53.984Z,17.76
2022-07-26T22:53:23.333Z,17.76
2022-07-26T22:55:51.646Z,17.79
2022-07-26T22:58:20.041Z,17.79
2022-07-26T23:00:48.387Z,17.72
2022-07-26T23:03:20.256Z,17.59
2022-07-26T23:05:50.361Z,17.65
2022-07-26T23:11:10.006Z,17.61
2022-07-26T23:13:40.888Z,17.64
2022-07-26T23:16:09.209Z,17.67
2022-07-26T23:18:37.682Z,17.64
2022-07-26T23:21:05.877Z,17.61
2022-07-26T23:23:33.929Z,17.53
2022-07-26T23:26:02.106Z,17.50
2022-07-26T23:28:37.133Z,17.47
2022-07-26T23:31:08.984Z,17.45
2022-07-26T23:33:52.330Z,17.42
2022-07-26T23:36:23.740Z,17.40
2022-07-26T23:38:52.459Z,17.39
2022-07-26T23:41:20.431Z,17.35
2022-07-26T23:43:49.967Z,17.30
2022-07-26T23:46:18.511Z,17.32
2022-07-26T23:48:47.215Z,17.29
2022-07-26T23:51:15.263Z,17.23
2022-07-26T23:53:43.518Z,17.20
2022-07-26T23:56:11.543Z,17.21
2022-07-26T23:58:39.711Z,17.12
